createdAt,value
2018-09-18T00:01:13.978Z,4.80
2018-09-18T00:03:42.221Z,4.87
2018-09-18T00:06:10.389Z,5.90
2018-09-18T00:08:38.583Z,5.20
2018-09-18T00:11:06.826Z,5.27
2018-09-18T00:13:35.063Z,6.70
2018-09-18T00:16:03.329Z,5.73
2018-09-18T00:18:31.762Z,5.80
2018-09-18T00:20:59.974Z,5.90
2018-09-18T00:23:28.420Z,5.53
2018-09-18T00:25:56.602Z,5.67
2018-09-18T00:28:24.810Z,5.60
2018-09-18T00:30:53.130Z,5.80
2018-09-18T00:33:21.314Z,5.73
2018-09-18T00:35:49.502Z,5.50
2018-09-18T00:38:17.692Z,5.23
2018-09-18T00:40:45.878Z,5.67
2018-09-18T00:43:14.050Z,7.40
2018-09-18T00:45:42.246Z,7.20
2018-09-18T00:48:10.430Z,5.70
2018-09-18T00:50:38.630Z,6.50
2018-09-18T00:53:06.797Z,6.10
2018-09-18T00:55:34.992Z,6.17
2018-09-18T00:58:03.258Z,6.20
2018-09-18T01:00:31.453Z,5.63
2018-09-18T01:02:59.618Z,5.80
2018-09-18T01:05:27.811Z,6.00
2018-09-18T01:07:55.990Z,6.70
2018-09-18T01:10:24.191Z,6.73
2018-09-18T01:12:52.373Z,6.57
2018-09-18T01:15:20.582Z,6.83
2018-09-18T01:17:48.878Z,6.13
2018-09-18T01:20:17.065Z,6.50
2018-09-18T01:22:45.252Z,6.80
2018-09-18T01:25:13.450Z,6.83
2018-09-18T01:27:41.638Z,7.17
2018-09-18T01:30:09.827Z,7.00
2018-09-18T01:32:38.008Z,6.07
2018-09-18T01:35:06.241Z,6.30
2018-09-18T01:37:34.415Z,6.77
2018-09-18T01:40:02.651Z,6.60
2018-09-18T01:42:30.895Z,5.97
2018-09-18T01:44:59.062Z,5.97
2018-09-18T01:47:27.287Z,6.60
2018-09-18T01:49:55.488Z,6.80
2018-09-18T01:52:23.702Z,6.50
2018-09-18T01:54:51.890Z,6.43
2018-09-18T01:57:20.098Z,6.47
2018-09-18T01:59:48.298Z,6.90
2018-09-18T02:02:16.501Z,6.53
2018-09-18T02:04:44.695Z,6.73
2018-09-18T02:07:12.904Z,6.83
2018-09-18T02:09:41.094Z,6.70
2018-09-18T02:12:09.298Z,6.27
2018-09-18T02:14:37.503Z,6.10
2018-09-18T02:17:05.727Z,6.60
2018-09-18T02:19:33.920Z,6.23
2018-09-18T02:22:02.139Z,7.30
2018-09-18T02:24:30.341Z,7.17
2018-09-18T02:26:58.559Z,7.03
2018-09-18T02:29:26.751Z,6.33
2018-09-18T02:31:54.954Z,6.40
2018-09-18T02:34:23.155Z,6.83
2018-09-18T02:36:51.366Z,7.20
2018-09-18T02:39:19.555Z,6.57
2018-09-18T02:41:47.742Z,6.20
2018-09-18T02:44:15.942Z,6.60
2018-09-18T02:46:44.163Z,6.67
2018-09-18T02:49:12.335Z,6.80
2018-09-18T02:51:40.530Z,6.57
2018-09-18T02:54:08.706Z,7.43
2018-09-18T02:56:36.890Z,6.63
2018-09-18T02:59:05.070Z,7.10
2018-09-18T03:01:33.250Z,6.83
2018-09-18T03:04:01.430Z,6.70
2018-09-18T03:06:29.614Z,6.70
2018-09-18T03:08:57.794Z,6.37
2018-09-18T03:11:26.077Z,6.30
2018-09-18T03:13:54.160Z,6.70
2018-09-18T03:16:22.355Z,7.53
2018-09-18T03:18:50.546Z,7.23
2018-09-18T03:21:18.714Z,6.50
2018-09-18T03:23:46.899Z,7.27
2018-09-18T03:26:15.076Z,6.80
2018-09-18T03:28:43.259Z,7.33
2018-09-18T03:31:11.440Z,6.60
2018-09-18T03:33:39.632Z,6.93
2018-09-18T03:36:08.039Z,7.03
2018-09-18T03:38:36.234Z,6.93
2018-09-18T03:41:04.414Z,6.80
2018-09-18T03:43:32.602Z,6.80
2018-09-18T03:46:00.778Z,6.90
2018-09-18T03:48:28.966Z,6.30
2018-09-18T03:50:57.147Z,7.17
2018-09-18T03:53:25.338Z,7.10
2018-09-18T03:55:53.514Z,6.70
2018-09-18T03:58:21.704Z,6.90
2018-09-18T04:00:49.883Z,7.13
2018-09-18T04:03:18.066Z,6.50
2018-09-18T04:05:46.247Z,7.40
2018-09-18T04:08:14.446Z,7.50
2018-09-18T04:10:42.617Z,7.30
2018-09-18T04:13:10.917Z,7.13
2018-09-18T04:15:40.262Z,7.60
2018-09-18T04:18:08.491Z,7.53
2018-09-18T04:20:36.667Z,7.60
2018-09-18T04:23:04.903Z,6.60
2018-09-18T04:25:33.086Z,7.50
2018-09-18T04:28:01.283Z,7.90
2018-09-18T04:30:29.457Z,8.40
2018-09-18T04:32:57.653Z,7.77
2018-09-18T04:35:25.830Z,7.53
2018-09-18T04:37:54.029Z,7.47
2018-09-18T04:40:22.230Z,7.40
2018-09-18T04:42:50.438Z,7.70
2018-09-18T04:45:18.638Z,7.93
2018-09-18T04:47:46.828Z,8.17
2018-09-18T04:50:15.042Z,8.57
2018-09-18T04:52:43.239Z,7.00
2018-09-18T04:55:11.455Z,8.90
2018-09-18T04:57:39.658Z,8.20
2018-09-18T05:00:08.446Z,7.63
2018-09-18T05:02:36.679Z,8.30
2018-09-18T05:05:05.449Z,7.30
2018-09-18T05:07:33.652Z,7.97
2018-09-18T05:10:01.868Z,8.10
2018-09-18T05:12:30.062Z,8.50
2018-09-18T05:14:58.274Z,7.33
2018-09-18T05:17:26.471Z,8.27
2018-09-18T05:19:54.678Z,8.70
2018-09-18T05:22:22.883Z,8.47
2018-09-18T05:24:51.106Z,8.50
2018-09-18T05:27:19.326Z,7.90
2018-09-18T05:29:47.539Z,8.30
2018-09-18T05:32:15.730Z,9.20
2018-09-18T05:34:43.967Z,9.17
2018-09-18T05:37:12.175Z,8.80
2018-09-18T05:39:40.407Z,8.97
2018-09-18T05:42:08.651Z,8.67
2018-09-18T05:44:36.818Z,8.33
2018-09-18T05:47:05.031Z,8.80
2018-09-18T05:49:33.247Z,8.93
2018-09-18T05:52:01.450Z,8.30
2018-09-18T05:54:29.659Z,7.73
2018-09-18T05:56:57.858Z,7.77
2018-09-18T05:59:26.080Z,8.73
2018-09-18T06:01:54.287Z,8.60
2018-09-18T06:04:22.503Z,9.43
2018-09-18T06:06:50.698Z,8.73
2018-09-18T06:09:18.898Z,7.97
2018-09-18T06:11:47.105Z,8.63
2018-09-18T06:14:15.317Z,9.17
2018-09-18T06:16:43.527Z,9.47
2018-09-18T06:19:11.751Z,9.50
2018-09-18T06:21:39.947Z,9.67
2018-09-18T06:24:08.387Z,9.30
2018-09-18T06:26:36.590Z,9.87
2018-09-18T06:29:04.800Z,9.17
2018-09-18T06:31:33.003Z,9.03
2018-09-18T06:34:01.218Z,9.20
2018-09-18T06:36:29.429Z,8.17
2018-09-18T06:38:57.642Z,8.93
2018-09-18T06:41:25.850Z,8.80
2018-09-18T06:43:54.259Z,9.50
2018-09-18T06:46:22.543Z,9.30
2018-09-18T06:48:50.738Z,9.10
2018-09-18T06:51:18.955Z,9.70
2018-09-18T06:53:47.138Z,8.33
2018-09-18T06:56:15.318Z,8.87
2018-09-18T06:58:43.755Z,9.17
2018-09-18T07:01:11.951Z,9.40
2018-09-18T07:03:40.130Z,9.33
2018-09-18T07:06:08.359Z,10.27
2018-09-18T07:08:36.552Z,8.40
2018-09-18T07:11:04.786Z,9.63
2018-09-18T07:13:32.971Z,8.83
2018-09-18T07:16:01.424Z,8.87
2018-09-18T07:18:29.602Z,8.57
2018-09-18T07:20:57.803Z,8.97
2018-09-18T07:23:26.019Z,8.73
2018-09-18T07:25:54.222Z,8.97
2018-09-18T07:28:22.406Z,9.33
2018-09-18T07:30:50.602Z,9.47
2018-09-18T07:33:18.791Z,9.10
2018-09-18T07:35:46.990Z,9.10
2018-09-18T07:38:15.189Z,9.80
2018-09-18T07:40:43.387Z,9.70
2018-09-18T07:43:11.572Z,9.73
2018-09-18T07:45:39.762Z,9.13
2018-09-18T07:48:07.942Z,9.40
2018-09-18T07:50:36.136Z,8.70
2018-09-18T07:53:04.321Z,21.30
2018-09-18T07:55:32.514Z,21.17
2018-09-18T07:58:00.722Z,23.07
2018-09-18T08:00:28.907Z,17.77
2018-09-18T08:02:57.112Z,11.57
2018-09-18T08:05:25.308Z,10.37
2018-09-18T08:07:53.523Z,10.00
2018-09-18T08:10:21.715Z,9.93
2018-09-18T08:12:49.915Z,10.27
2018-09-18T08:15:18.099Z,8.90
2018-09-18T08:17:46.299Z,9.40
2018-09-18T08:20:14.490Z,8.70
2018-09-18T08:22:42.779Z,8.80
2018-09-18T08:25:11.017Z,9.00
2018-09-18T08:27:39.168Z,7.87
2018-09-18T08:30:07.356Z,8.77
2018-09-18T08:32:35.581Z,8.10
2018-09-18T08:35:03.755Z,7.90
2018-09-18T08:37:31.952Z,9.40
2018-09-18T08:40:00.261Z,8.70
2018-09-18T08:42:28.358Z,9.17
2018-09-18T08:44:56.548Z,7.87
2018-09-18T08:47:24.738Z,8.03
2018-09-18T08:49:52.948Z,7.17
2018-09-18T08:52:21.147Z,7.10
2018-09-18T08:54:49.341Z,7.30
2018-09-18T08:57:17.539Z,6.80
2018-09-18T08:59:45.733Z,6.40
2018-09-18T09:02:13.979Z,7.10
2018-09-18T09:04:42.118Z,6.37
2018-09-18T09:07:10.327Z,6.60
2018-09-18T09:09:38.500Z,6.87
2018-09-18T09:12:06.831Z,5.90
2018-09-18T09:14:35.104Z,6.43
2018-09-18T09:17:03.214Z,6.30
2018-09-18T09:19:31.393Z,6.30
2018-09-18T09:21:59.728Z,6.77
2018-09-18T09:24:27.839Z,6.60
2018-09-18T09:26:56.103Z,6.17
2018-09-18T09:29:24.244Z,6.07
2018-09-18T09:31:52.420Z,6.63
2018-09-18T09:34:20.639Z,6.07
2018-09-18T09:36:48.886Z,7.43
2018-09-18T09:39:17.055Z,13.50
2018-09-18T09:41:45.262Z,5.87
2018-09-18T09:44:13.494Z,6.50
2018-09-18T09:46:41.709Z,6.03
2018-09-18T09:49:09.927Z,6.40
2018-09-18T09:51:38.211Z,6.20
2018-09-18T09:54:06.329Z,5.60
2018-09-18T09:56:34.525Z,6.43
2018-09-18T09:59:02.734Z,5.73
2018-09-18T10:01:36.410Z,6.90
2018-09-18T10:04:04.622Z,6.17
2018-09-18T10:06:32.826Z,6.67
2018-09-18T10:09:01.028Z,6.67
2018-09-18T10:11:29.222Z,5.83
2018-09-18T10:13:57.438Z,6.70
2018-09-18T10:16:25.630Z,6.70
2018-09-18T10:18:53.843Z,6.97
2018-09-18T10:21:22.033Z,6.50
2018-09-18T10:23:50.257Z,6.53
2018-09-18T10:26:18.618Z,6.90
2018-09-18T10:28:46.655Z,6.60
2018-09-18T10:31:14.871Z,6.00
2018-09-18T10:33:43.049Z,6.33
2018-09-18T10:36:11.246Z,6.80
2018-09-18T10:38:39.462Z,6.47
2018-09-18T10:41:07.783Z,6.80
2018-09-18T10:43:35.918Z,6.83
2018-09-18T10:46:04.113Z,6.00
2018-09-18T10:48:36.527Z,7.20
2018-09-18T10:51:04.693Z,6.03
2018-09-18T10:53:32.914Z,6.43
2018-09-18T10:56:01.089Z,6.27
2018-09-18T10:58:29.289Z,6.87
2018-09-18T11:00:57.463Z,6.70
2018-09-18T11:03:25.637Z,6.23
2018-09-18T11:05:53.851Z,6.53
2018-09-18T11:08:22.175Z,6.77
2018-09-18T11:10:50.433Z,6.30
2018-09-18T11:13:18.682Z,7.13
2018-09-18T11:15:46.869Z,6.17
2018-09-18T11:18:15.042Z,6.67
2018-09-18T11:20:43.182Z,7.27
2018-09-18T11:23:11.493Z,7.07
2018-09-18T11:25:39.737Z,6.90
2018-09-18T11:28:07.969Z,5.50
2018-09-18T11:30:36.166Z,6.47
2018-09-18T11:33:04.338Z,7.70
2018-09-18T11:35:32.526Z,7.13
2018-09-18T11:38:00.697Z,6.57
2018-09-18T11:40:28.922Z,6.50
2018-09-18T11:42:57.129Z,6.80
2018-09-18T11:45:25.358Z,6.80
2018-09-18T11:47:53.537Z,8.43
2018-09-18T11:50:21.740Z,6.00
2018-09-18T11:52:49.957Z,6.70
2018-09-18T11:55:18.146Z,6.30
2018-09-18T11:57:46.338Z,6.63
2018-09-18T12:00:14.534Z,6.43
2018-09-18T12:02:42.784Z,7.10
2018-09-18T12:05:11.013Z,6.80
2018-09-18T12:07:39.126Z,6.80
2018-09-18T12:10:07.330Z,6.80
2018-09-18T12:12:35.517Z,6.70
2018-09-18T12:15:03.725Z,7.50
2018-09-18T12:17:31.933Z,7.60
2018-09-18T12:20:00.125Z,7.37
2018-09-18T12:22:28.454Z,6.77
2018-09-18T12:24:56.554Z,6.80
2018-09-18T12:27:24.746Z,6.20
2018-09-18T12:29:52.938Z,7.20
2018-09-18T12:32:21.143Z,6.97
2018-09-18T12:34:49.334Z,7.10
2018-09-18T12:37:17.533Z,6.70
2018-09-18T12:39:45.738Z,6.80
2018-09-18T12:42:13.982Z,6.70
2018-09-18T12:44:42.133Z,7.30
2018-09-18T12:47:10.337Z,6.00
2018-09-18T12:49:38.611Z,6.90
2018-09-18T12:52:06.735Z,6.50
2018-09-18T12:54:34.921Z,6.87
2018-09-18T12:57:03.187Z,6.70
2018-09-18T12:59:31.375Z,6.63
2018-09-18T13:01:59.554Z,7.20
2018-09-18T13:04:27.755Z,6.70
2018-09-18T13:06:56.016Z,6.80
2018-09-18T13:09:24.158Z,7.40
2018-09-18T13:11:52.364Z,6.23
2018-09-18T13:14:20.558Z,6.60
2018-09-18T13:16:48.769Z,6.93
2018-09-18T13:19:16.962Z,6.70
2018-09-18T13:21:45.187Z,6.57
2018-09-18T13:24:13.369Z,6.60
2018-09-18T13:26:41.561Z,6.97
2018-09-18T13:29:09.754Z,7.37
2018-09-18T13:31:37.959Z,7.00
2018-09-18T13:34:06.551Z,6.40
2018-09-18T13:36:34.783Z,6.70
2018-09-18T13:39:02.960Z,6.67
2018-09-18T13:41:31.141Z,6.60
2018-09-18T13:43:59.319Z,6.33
2018-09-18T13:46:27.536Z,6.40
2018-09-18T13:48:55.693Z,7.33
2018-09-18T13:51:23.881Z,7.40
2018-09-18T13:53:52.049Z,6.83
2018-09-18T13:56:20.294Z,6.80
2018-09-18T13:58:48.418Z,7.00
2018-09-18T14:01:16.670Z,6.87
2018-09-18T14:03:44.790Z,10.13
2018-09-18T14:06:12.961Z,7.37
2018-09-18T14:08:41.146Z,7.03
2018-09-18T14:11:09.325Z,7.50
2018-09-18T14:13:37.502Z,7.40
2018-09-18T14:16:05.682Z,6.83
2018-09-18T14:18:33.870Z,7.10
2018-09-18T14:21:02.045Z,7.30
2018-09-18T14:23:30.238Z,7.13
2018-09-18T14:25:58.413Z,6.90
2018-09-18T14:28:26.618Z,6.90
2018-09-18T14:30:54.818Z,7.40
2018-09-18T14:33:23.013Z,6.93
2018-09-18T14:35:51.185Z,7.40
2018-09-18T14:38:19.395Z,6.90
2018-09-18T14:40:47.569Z,7.30
2018-09-18T14:43:15.748Z,7.43
2018-09-18T14:45:43.930Z,7.03
2018-09-18T14:48:12.116Z,7.60
2018-09-18T14:50:40.281Z,6.43
2018-09-18T14:53:08.474Z,6.50
2018-09-18T14:55:36.654Z,6.83
2018-09-18T14:58:04.834Z,7.17
2018-09-18T15:00:33.010Z,6.27
2018-09-18T15:03:01.204Z,7.50
2018-09-18T15:05:29.373Z,6.57
2018-09-18T15:07:57.558Z,7.80
2018-09-18T15:10:25.751Z,8.63
2018-09-18T15:12:54.047Z,6.80
2018-09-18T15:15:22.218Z,8.40
2018-09-18T15:17:50.397Z,9.50
2018-09-18T15:20:18.596Z,7.90
2018-09-18T15:22:46.802Z,7.43
2018-09-18T15:25:14.981Z,7.00
2018-09-18T15:27:43.150Z,6.80
2018-09-18T15:30:11.358Z,7.77
2018-09-18T15:32:39.542Z,7.30
2018-09-18T15:35:07.753Z,6.73
2018-09-18T15:37:35.942Z,6.00
2018-09-18T15:40:04.294Z,8.23
2018-09-18T15:42:32.405Z,7.30
2018-09-18T15:45:00.587Z,7.10
2018-09-18T15:47:28.814Z,7.70
2018-09-18T15:49:56.954Z,7.37
2018-09-18T15:52:25.129Z,6.80
2018-09-18T15:54:53.308Z,7.27
2018-09-18T15:57:21.530Z,5.60
2018-09-18T15:59:49.722Z,6.10
2018-09-18T16:02:17.906Z,6.00
2018-09-18T16:04:46.091Z,5.33
2018-09-18T16:07:14.270Z,6.00
2018-09-18T16:09:42.492Z,6.40
2018-09-18T16:12:10.655Z,5.37
2018-09-18T16:14:38.867Z,5.47
2018-09-18T16:17:07.055Z,5.20
2018-09-18T16:19:35.204Z,6.20
2018-09-18T16:22:03.425Z,5.97
2018-09-18T16:24:31.640Z,6.73
2018-09-18T16:26:59.813Z,6.30
2018-09-18T16:29:28.008Z,5.63
2018-09-18T16:31:56.197Z,6.10
2018-09-18T16:34:24.402Z,5.87
2018-09-18T16:36:52.606Z,5.67
2018-09-18T16:39:20.782Z,7.20
2018-09-18T16:41:48.981Z,7.67
2018-09-18T16:44:17.169Z,7.40
2018-09-18T16:46:45.388Z,7.10
2018-09-18T16:49:13.574Z,7.03
2018-09-18T16:51:41.784Z,6.73
2018-09-18T16:54:10.003Z,6.73
2018-09-18T16:56:38.202Z,6.50
2018-09-18T16:59:06.393Z,5.80
2018-09-18T17:01:34.643Z,6.23
2018-09-18T17:04:02.774Z,6.70
2018-09-18T17:06:31.048Z,6.80
2018-09-18T17:08:59.338Z,6.33
2018-09-18T17:11:27.525Z,6.30
2018-09-18T17:13:55.697Z,6.30
2018-09-18T17:16:23.921Z,4.90
2018-09-18T17:18:52.061Z,5.53
2018-09-18T17:21:20.340Z,5.20
2018-09-18T17:23:48.538Z,6.10
2018-09-18T17:26:16.727Z,7.00
2018-09-18T17:28:45.169Z,6.57
2018-09-18T17:31:13.187Z,6.00
2018-09-18T17:33:41.373Z,5.53
2018-09-18T17:36:09.586Z,5.47
2018-09-18T17:38:37.789Z,5.30
2018-09-18T17:41:07.155Z,4.37
2018-09-18T17:43:35.362Z,4.63
2018-09-18T17:46:03.581Z,5.50
2018-09-18T17:48:31.785Z,4.70
2018-09-18T17:50:59.978Z,4.30
2018-09-18T17:53:28.315Z,4.90
2018-09-18T17:55:56.470Z,5.27
2018-09-18T17:58:24.673Z,5.60
2018-09-18T18:00:52.866Z,5.00
2018-09-18T18:03:21.073Z,4.70
2018-09-18T18:05:49.268Z,5.50
2018-09-18T18:08:17.479Z,4.93
2018-09-18T18:10:45.682Z,5.00
2018-09-18T18:13:13.966Z,5.00
2018-09-18T18:15:42.157Z,4.93
2018-09-18T18:18:10.377Z,4.83
2018-09-18T18:20:38.663Z,5.80
2018-09-18T18:23:06.803Z,4.97
2018-09-18T18:25:34.998Z,5.40
2018-09-18T18:28:03.202Z,4.90
2018-09-18T18:30:31.507Z,4.90
2018-09-18T18:32:59.716Z,6.10
2018-09-18T18:35:27.928Z,7.80
2018-09-18T18:37:56.129Z,6.70
2018-09-18T18:40:24.327Z,5.87
2018-09-18T18:42:52.508Z,5.57
2018-09-18T18:45:20.671Z,4.90
2018-09-18T18:47:48.963Z,3.83
2018-09-18T18:50:17.094Z,4.00
2018-09-18T18:52:45.294Z,4.17
2018-09-18T18:55:13.471Z,4.90
2018-09-18T18:57:41.654Z,3.63
2018-09-18T19:00:09.909Z,2.90
2018-09-18T19:02:38.110Z,2.87
2018-09-18T19:05:06.324Z,3.10
2018-09-18T19:07:34.501Z,4.03
2018-09-18T19:10:02.696Z,3.90
2018-09-18T19:12:30.873Z,3.63
2018-09-18T19:14:59.057Z,3.90
2018-09-18T19:17:27.234Z,3.90
2018-09-18T19:19:55.431Z,4.93
2018-09-18T19:22:23.605Z,4.70
2018-09-18T19:24:51.786Z,4.20
2018-09-18T19:27:19.973Z,4.67
2018-09-18T19:29:48.168Z,4.30
2018-09-18T19:32:16.360Z,4.73
2018-09-18T19:34:44.545Z,4.77
2018-09-18T19:37:12.729Z,5.20
2018-09-18T19:39:40.958Z,5.07
2018-09-18T19:42:09.172Z,4.90
2018-09-18T19:44:37.384Z,5.00
2018-09-18T19:47:05.583Z,4.87
2018-09-18T19:49:38.077Z,4.90
2018-09-18T19:52:06.568Z,4.50
2018-09-18T19:54:34.767Z,5.10
2018-09-18T19:57:03.029Z,4.57
2018-09-18T19:59:31.239Z,4.77
2018-09-18T20:01:59.441Z,5.03
2018-09-18T20:04:27.759Z,5.00
2018-09-18T20:06:56.026Z,5.30
2018-09-18T20:09:24.293Z,4.87
2018-09-18T20:11:52.453Z,5.00
2018-09-18T20:14:20.667Z,5.27
2018-09-18T20:16:48.882Z,5.00
2018-09-18T20:19:17.112Z,5.47
2018-09-18T20:21:45.322Z,5.10
2018-09-18T20:24:13.544Z,5.43
2018-09-18T20:26:41.752Z,4.87
2018-09-18T20:29:10.084Z,4.60
2018-09-18T20:31:38.289Z,5.20
2018-09-18T20:34:06.743Z,4.77
2018-09-18T20:36:34.947Z,5.10
2018-09-18T20:39:03.158Z,4.93
2018-09-18T20:41:31.400Z,4.80
2018-09-18T20:43:59.587Z,4.67
2018-09-18T20:46:27.824Z,4.97
2018-09-18T20:48:56.019Z,4.60
2018-09-18T20:51:24.224Z,4.77
2018-09-18T20:53:52.422Z,5.13
2018-09-18T20:56:20.634Z,4.83
2018-09-18T20:58:48.843Z,4.73
2018-09-18T21:01:17.073Z,4.50
2018-09-18T21:03:45.267Z,4.50
2018-09-18T21:06:13.471Z,4.23
2018-09-18T21:08:41.742Z,4.87
2018-09-18T21:11:09.925Z,5.00
2018-09-18T21:13:38.139Z,7.50
2018-09-18T21:16:06.344Z,6.40
2018-09-18T21:18:34.551Z,5.07
2018-09-18T21:21:03.612Z,5.00
2018-09-18T21:23:32.074Z,5.20
2018-09-18T21:26:02.612Z,4.80
2018-09-18T21:28:30.829Z,4.40
2018-09-18T21:30:59.059Z,4.33
2018-09-18T21:33:27.276Z,4.87
2018-09-18T21:35:55.475Z,4.83
2018-09-18T21:38:23.686Z,4.37
2018-09-18T21:40:51.862Z,4.00
2018-09-18T21:43:20.054Z,4.80
2018-09-18T21:45:48.686Z,4.00
2018-09-18T21:48:16.932Z,4.53
2018-09-18T21:50:45.092Z,4.50
2018-09-18T21:53:14.176Z,4.27
2018-09-18T21:55:43.042Z,4.30
2018-09-18T21:58:11.354Z,4.40
2018-09-18T22:00:39.652Z,4.37
2018-09-18T22:03:08.061Z,4.63
2018-09-18T22:05:36.243Z,4.83
2018-09-18T22:08:04.548Z,4.80
2018-09-18T22:10:32.721Z,4.67
2018-09-18T22:13:01.713Z,4.43
2018-09-18T22:15:30.500Z,5.10
2018-09-18T22:17:58.693Z,4.53
2018-09-18T22:20:26.874Z,4.70
2018-09-18T22:22:55.058Z,4.63
2018-09-18T22:25:23.907Z,5.27
2018-09-18T22:27:52.492Z,4.60
2018-09-18T22:30:20.671Z,4.77
2018-09-18T22:32:48.864Z,4.37
2018-09-18T22:35:17.043Z,4.30
2018-09-18T22:37:45.239Z,4.80
2018-09-18T22:40:13.444Z,4.70
2018-09-18T22:42:41.645Z,4.60
2018-09-18T22:45:10.642Z,5.27
2018-09-18T22:47:38.826Z,4.67
2018-09-18T22:50:06.997Z,5.00
2018-09-18T22:52:35.178Z,4.97
2018-09-18T22:55:03.346Z,4.80
2018-09-18T22:57:31.614Z,4.70
2018-09-18T22:59:59.741Z,4.50
2018-09-18T23:02:27.919Z,4.60
2018-09-18T23:04:56.111Z,5.73
2018-09-18T23:07:24.283Z,4.50
2018-09-18T23:09:52.484Z,4.30
2018-09-18T23:12:20.649Z,4.13
2018-09-18T23:14:48.858Z,4.60
2018-09-18T23:17:17.044Z,4.47
2018-09-18T23:19:45.234Z,4.43
2018-09-18T23:22:13.419Z,4.70
2018-09-18T23:24:41.683Z,4.70
2018-09-18T23:27:09.904Z,5.13
2018-09-18T23:29:38.054Z,4.37
2018-09-18T23:32:06.276Z,5.10
2018-09-18T23:34:34.499Z,4.30
2018-09-18T23:37:02.681Z,4.90
2018-09-18T23:39:30.899Z,5.10
2018-09-18T23:41:59.138Z,5.10
2018-09-18T23:44:27.535Z,4.60
2018-09-18T23:46:55.718Z,4.10
2018-09-18T23:49:23.915Z,5.13
2018-09-18T23:51:52.139Z,4.60
2018-09-18T23:54:20.357Z,4.93
2018-09-18T23:56:48.538Z,4.70
2018-09-18T23:59:16.732Z,5.43
